Skip Navigation LinksHome page > Weather > Current weather Skip Navigation Links

Current Weather

Jakutsk, Russia

For information only: do not use for flight planning or navigation.
Latest weather
Observation time Tuesday, January 27, 2015 5:00 PM JST
Local time Tuesday, January 27, 2015 5:19 PM JST
Flight conditions Visual Meteorological Conditions
Winds
Wind direction North (360°)
Wind speed 2 mph
Visibility 6.2 mi.
Sky condition
Ceiling unlimited
Sky clear
Temperature -33°F
Dewpoint -38°F
Altimeter 30.09 in.Hg
Precipitation
QF 5:36 AM
Derived measurements
Relative humidity 74%
Wind chill -33°F
Density altitude -6653 ft.
Remarks
Ceiling and visibility OK.
No significant changes expected in the next two hours.
METAR UEEE 270800Z 36001MPS CAVOK M36/M39 Q1019 NOSIG RMK QFE756 23490150

Settings

Location code

InnerDrive.Weather 4.0.5505.0 Release CLR 4.0.30319.34014
Copyright ©2015 Inner Drive Technology. All rights reserved. Portions Copyright ©1986-2015 David Braverman.

Find weather

Site navigation


Skip Navigation Links

Place info

Page info

PayPal - The safer, easier way to pay online!

Return home.

Copyright ©2015 Inner Drive Technology. Purveyors of fine, hand-crafted computer software. Page printed 2015-01-27T08:19:37 UTC.